sensor_id;sensor_type;location;lat;lon;timestamp;P1;durP1;ratioP1;P2;durP2;ratioP2
55362;SDS011;41244;49.242;9.060;2024-03-07T00:00:34;46.90;;;31.00;;
55362;SDS011;41244;49.242;9.060;2024-03-07T00:03:00;46.38;;;31.48;;
55362;SDS011;41244;49.242;9.060;2024-03-07T00:05:26;45.53;;;32.72;;
55362;SDS011;41244;49.242;9.060;2024-03-07T00:07:53;50.40;;;34.08;;
55362;SDS011;41244;49.242;9.060;2024-03-07T00:10:19;47.25;;;32.47;;
55362;SDS011;41244;49.242;9.060;2024-03-07T00:12:46;45.80;;;31.45;;
55362;SDS011;41244;49.242;9.060;2024-03-07T00:15:13;44.92;;;31.95;;
55362;SDS011;41244;49.242;9.060;2024-03-07T00:17:39;46.53;;;32.47;;
55362;SDS011;41244;49.242;9.060;2024-03-07T00:20:06;47.83;;;31.98;;
55362;SDS011;41244;49.242;9.060;2024-03-07T00:22:39;47.72;;;32.55;;
55362;SDS011;41244;49.242;9.060;2024-03-07T00:25:09;47.97;;;31.20;;
55362;SDS011;41244;49.242;9.060;2024-03-07T00:27:36;45.97;;;31.90;;
55362;SDS011;41244;49.242;9.060;2024-03-07T00:30:03;47.47;;;31.85;;
55362;SDS011;41244;49.242;9.060;2024-03-07T00:32:34;49.17;;;32.28;;
55362;SDS011;41244;49.242;9.060;2024-03-07T00:35:04;47.47;;;31.55;;
55362;SDS011;41244;49.242;9.060;2024-03-07T00:37:36;43.90;;;31.27;;
55362;SDS011;41244;49.242;9.060;2024-03-07T00:40:02;46.67;;;32.83;;
55362;SDS011;41244;49.242;9.060;2024-03-07T00:42:28;45.70;;;32.17;;
55362;SDS011;41244;49.242;9.060;2024-03-07T00:44:54;44.95;;;31.73;;
55362;SDS011;41244;49.242;9.060;2024-03-07T00:47:19;46.20;;;32.10;;
55362;SDS011;41244;49.242;9.060;2024-03-07T00:49:45;42.78;;;30.25;;
55362;SDS011;41244;49.242;9.060;2024-03-07T00:52:12;47.42;;;32.15;;
55362;SDS011;41244;49.242;9.060;2024-03-07T00:54:38;45.60;;;32.28;;
55362;SDS011;41244;49.242;9.060;2024-03-07T00:57:04;44.40;;;31.00;;
55362;SDS011;41244;49.242;9.060;2024-03-07T00:59:30;50.45;;;32.00;;
55362;SDS011;41244;49.242;9.060;2024-03-07T01:01:55;43.58;;;31.67;;
55362;SDS011;41244;49.242;9.060;2024-03-07T01:04:21;44.53;;;30.35;;
55362;SDS011;41244;49.242;9.060;2024-03-07T01:06:47;47.13;;;31.63;;
55362;SDS011;41244;49.242;9.060;2024-03-07T01:09:13;45.30;;;30.67;;
55362;SDS011;41244;49.242;9.060;2024-03-07T01:11:42;44.92;;;31.73;;
55362;SDS011;41244;49.242;9.060;2024-03-07T01:14:12;42.60;;;31.08;;
55362;SDS011;41244;49.242;9.060;2024-03-07T01:16:38;44.20;;;31.40;;
55362;SDS011;41244;49.242;9.060;2024-03-07T01:19:04;47.50;;;31.30;;
55362;SDS011;41244;49.242;9.060;2024-03-07T01:21:33;44.33;;;31.52;;
55362;SDS011;41244;49.242;9.060;2024-03-07T01:24:00;46.75;;;32.55;;
55362;SDS011;41244;49.242;9.060;2024-03-07T01:26:29;45.47;;;30.85;;
55362;SDS011;41244;49.242;9.060;2024-03-07T01:28:56;42.65;;;31.33;;
55362;SDS011;41244;49.242;9.060;2024-03-07T01:31:23;45.90;;;33.20;;
55362;SDS011;41244;49.242;9.060;2024-03-07T01:33:49;45.53;;;32.55;;
55362;SDS011;41244;49.242;9.060;2024-03-07T01:36:15;45.30;;;31.70;;
55362;SDS011;41244;49.242;9.060;2024-03-07T01:38:41;47.25;;;32.33;;
55362;SDS011;41244;49.242;9.060;2024-03-07T01:41:07;42.60;;;31.10;;
55362;SDS011;41244;49.242;9.060;2024-03-07T01:43:33;46.00;;;30.75;;
55362;SDS011;41244;49.242;9.060;2024-03-07T01:45:59;45.95;;;30.58;;
55362;SDS011;41244;49.242;9.060;2024-03-07T01:48:28;44.97;;;30.45;;
55362;SDS011;41244;49.242;9.060;2024-03-07T01:50:55;43.63;;;30.48;;
55362;SDS011;41244;49.242;9.060;2024-03-07T01:53:21;40.50;;;29.38;;
55362;SDS011;41244;49.242;9.060;2024-03-07T01:55:48;43.97;;;31.52;;
55362;SDS011;41244;49.242;9.060;2024-03-07T01:58:16;44.22;;;29.73;;
55362;SDS011;41244;49.242;9.060;2024-03-07T02:00:44;42.13;;;29.92;;
55362;SDS011;41244;49.242;9.060;2024-03-07T02:03:09;43.78;;;30.05;;
55362;SDS011;41244;49.242;9.060;2024-03-07T02:05:35;48.20;;;31.83;;
55362;SDS011;41244;49.242;9.060;2024-03-07T02:08:01;45.17;;;31.15;;
55362;SDS011;41244;49.242;9.060;2024-03-07T02:10:27;43.65;;;30.42;;
55362;SDS011;41244;49.242;9.060;2024-03-07T02:12:53;43.67;;;30.05;;
55362;SDS011;41244;49.242;9.060;2024-03-07T02:15:18;45.03;;;31.20;;
55362;SDS011;41244;49.242;9.060;2024-03-07T02:17:44;49.85;;;32.00;;
55362;SDS011;41244;49.242;9.060;2024-03-07T02:20:10;51.97;;;34.15;;
55362;SDS011;41244;49.242;9.060;2024-03-07T02:22:36;48.55;;;32.00;;
55362;SDS011;41244;49.242;9.060;2024-03-07T02:25:02;47.38;;;31.20;;
55362;SDS011;41244;49.242;9.060;2024-03-07T02:27:29;48.15;;;31.45;;
55362;SDS011;41244;49.242;9.060;2024-03-07T02:29:55;48.80;;;32.30;;
55362;SDS011;41244;49.242;9.060;2024-03-07T02:32:20;45.38;;;31.65;;
55362;SDS011;41244;49.242;9.060;2024-03-07T02:34:48;46.67;;;32.67;;
55362;SDS011;41244;49.242;9.060;2024-03-07T02:37:14;49.97;;;32.20;;
55362;SDS011;41244;49.242;9.060;2024-03-07T02:39:39;50.15;;;31.52;;
55362;SDS011;41244;49.242;9.060;2024-03-07T02:42:05;46.58;;;31.00;;
55362;SDS011;41244;49.242;9.060;2024-03-07T02:44:31;45.88;;;30.90;;
55362;SDS011;41244;49.242;9.060;2024-03-07T02:46:58;44.42;;;29.90;;
55362;SDS011;41244;49.242;9.060;2024-03-07T02:49:24;46.85;;;29.88;;
55362;SDS011;41244;49.242;9.060;2024-03-07T02:51:49;45.35;;;31.05;;
55362;SDS011;41244;49.242;9.060;2024-03-07T02:54:15;44.40;;;29.92;;
55362;SDS011;41244;49.242;9.060;2024-03-07T02:56:41;47.17;;;30.88;;
55362;SDS011;41244;49.242;9.060;2024-03-07T02:59:07;44.72;;;30.42;;
55362;SDS011;41244;49.242;9.060;2024-03-07T03:01:32;41.85;;;28.67;;
55362;SDS011;41244;49.242;9.060;2024-03-07T03:03:58;46.22;;;31.30;;
55362;SDS011;41244;49.242;9.060;2024-03-07T03:06:24;42.33;;;29.23;;
55362;SDS011;41244;49.242;9.060;2024-03-07T03:08:50;43.25;;;29.25;;
55362;SDS011;41244;49.242;9.060;2024-03-07T03:11:16;43.80;;;29.40;;
55362;SDS011;41244;49.242;9.060;2024-03-07T03:13:42;43.28;;;29.23;;
55362;SDS011;41244;49.242;9.060;2024-03-07T03:16:08;44.45;;;29.40;;
55362;SDS011;41244;49.242;9.060;2024-03-07T03:18:34;41.65;;;28.17;;
55362;SDS011;41244;49.242;9.060;2024-03-07T03:21:00;43.72;;;29.42;;
55362;SDS011;41244;49.242;9.060;2024-03-07T03:23:27;43.83;;;28.25;;
55362;SDS011;41244;49.242;9.060;2024-03-07T03:25:54;44.67;;;29.50;;
55362;SDS011;41244;49.242;9.060;2024-03-07T03:28:20;44.20;;;29.27;;
55362;SDS011;41244;49.242;9.060;2024-03-07T03:30:47;46.63;;;30.17;;
55362;SDS011;41244;49.242;9.060;2024-03-07T03:33:14;48.40;;;29.20;;
55362;SDS011;41244;49.242;9.060;2024-03-07T03:35:40;43.20;;;27.95;;
55362;SDS011;41244;49.242;9.060;2024-03-07T03:38:06;46.35;;;27.85;;
55362;SDS011;41244;49.242;9.060;2024-03-07T03:40:33;44.13;;;29.88;;
55362;SDS011;41244;49.242;9.060;2024-03-07T03:42:59;43.00;;;27.55;;
55362;SDS011;41244;49.242;9.060;2024-03-07T03:45:25;42.05;;;27.88;;
55362;SDS011;41244;49.242;9.060;2024-03-07T03:47:51;44.67;;;28.23;;
55362;SDS011;41244;49.242;9.060;2024-03-07T03:50:17;41.72;;;28.17;;
55362;SDS011;41244;49.242;9.060;2024-03-07T03:52:44;42.33;;;27.42;;
55362;SDS011;41244;49.242;9.060;2024-03-07T03:55:10;45.83;;;29.95;;
55362;SDS011;41244;49.242;9.060;2024-03-07T03:57:40;43.28;;;28.42;;
55362;SDS011;41244;49.242;9.060;2024-03-07T04:00:11;42.95;;;28.45;;
55362;SDS011;41244;49.242;9.060;2024-03-07T04:02:42;41.05;;;26.70;;
55362;SDS011;41244;49.242;9.060;2024-03-07T04:05:09;43.83;;;28.35;;
55362;SDS011;41244;49.242;9.060;2024-03-07T04:07:37;39.30;;;26.17;;
55362;SDS011;41244;49.242;9.060;2024-03-07T04:10:03;42.78;;;27.55;;
55362;SDS011;41244;49.242;9.060;2024-03-07T04:12:33;44.30;;;28.52;;
55362;SDS011;41244;49.242;9.060;2024-03-07T04:15:06;43.33;;;28.02;;
55362;SDS011;41244;49.242;9.060;2024-03-07T04:17:33;45.47;;;28.67;;
55362;SDS011;41244;49.242;9.060;2024-03-07T04:20:03;45.25;;;30.10;;
55362;SDS011;41244;49.242;9.060;2024-03-07T04:22:34;50.80;;;29.63;;
55362;SDS011;41244;49.242;9.060;2024-03-07T04:25:00;44.90;;;28.52;;
55362;SDS011;41244;49.242;9.060;2024-03-07T04:27:27;45.75;;;28.48;;
55362;SDS011;41244;49.242;9.060;2024-03-07T04:29:53;44.30;;;27.70;;
55362;SDS011;41244;49.242;9.060;2024-03-07T04:32:19;44.10;;;29.38;;
55362;SDS011;41244;49.242;9.060;2024-03-07T04:34:46;47.70;;;28.33;;
55362;SDS011;41244;49.242;9.060;2024-03-07T04:37:11;47.97;;;29.38;;
55362;SDS011;41244;49.242;9.060;2024-03-07T04:39:40;46.20;;;29.38;;
55362;SDS011;41244;49.242;9.060;2024-03-07T04:42:07;53.35;;;30.15;;
55362;SDS011;41244;49.242;9.060;2024-03-07T04:44:34;44.38;;;29.63;;
55362;SDS011;41244;49.242;9.060;2024-03-07T04:47:01;46.80;;;29.85;;
55362;SDS011;41244;49.242;9.060;2024-03-07T04:49:29;47.58;;;28.33;;
55362;SDS011;41244;49.242;9.060;2024-03-07T04:51:57;42.65;;;27.73;;
55362;SDS011;41244;49.242;9.060;2024-03-07T04:54:24;44.95;;;28.52;;
55362;SDS011;41244;49.242;9.060;2024-03-07T04:56:52;46.45;;;27.88;;
55362;SDS011;41244;49.242;9.060;2024-03-07T04:59:18;42.03;;;26.60;;
55362;SDS011;41244;49.242;9.060;2024-03-07T05:01:46;43.00;;;28.10;;
55362;SDS011;41244;49.242;9.060;2024-03-07T05:04:13;40.50;;;26.00;;
55362;SDS011;41244;49.242;9.060;2024-03-07T05:06:39;39.88;;;27.02;;
55362;SDS011;41244;49.242;9.060;2024-03-07T05:09:06;41.05;;;27.13;;
55362;SDS011;41244;49.242;9.060;2024-03-07T05:11:50;43.40;;;27.55;;
55362;SDS011;41244;49.242;9.060;2024-03-07T05:14:18;42.63;;;25.92;;
55362;SDS011;41244;49.242;9.060;2024-03-07T05:16:45;48.28;;;26.30;;
55362;SDS011;41244;49.242;9.060;2024-03-07T05:19:11;38.50;;;24.92;;
55362;SDS011;41244;49.242;9.060;2024-03-07T05:21:37;37.30;;;25.42;;
55362;SDS011;41244;49.242;9.060;2024-03-07T05:24:04;41.22;;;26.15;;
55362;SDS011;41244;49.242;9.060;2024-03-07T05:26:33;37.33;;;24.98;;
55362;SDS011;41244;49.242;9.060;2024-03-07T05:29:02;36.30;;;25.05;;
55362;SDS011;41244;49.242;9.060;2024-03-07T05:31:36;42.07;;;28.37;;
55362;SDS011;41244;49.242;9.060;2024-03-07T05:34:06;34.95;;;24.05;;
55362;SDS011;41244;49.242;9.060;2024-03-07T05:36:35;40.15;;;22.90;;
55362;SDS011;41244;49.242;9.060;2024-03-07T05:39:01;37.08;;;24.52;;
55362;SDS011;41244;49.242;9.060;2024-03-07T05:41:33;31.85;;;22.38;;
55362;SDS011;41244;49.242;9.060;2024-03-07T05:43:59;30.92;;;22.42;;
55362;SDS011;41244;49.242;9.060;2024-03-07T05:46:25;34.17;;;23.10;;
55362;SDS011;41244;49.242;9.060;2024-03-07T05:48:51;30.83;;;21.85;;
55362;SDS011;41244;49.242;9.060;2024-03-07T05:51:24;29.75;;;22.00;;
55362;SDS011;41244;49.242;9.060;2024-03-07T05:53:50;34.60;;;22.42;;
55362;SDS011;41244;49.242;9.060;2024-03-07T05:56:16;34.05;;;22.08;;
55362;SDS011;41244;49.242;9.060;2024-03-07T05:58:42;31.73;;;22.45;;
55362;SDS011;41244;49.242;9.060;2024-03-07T06:01:08;38.65;;;21.95;;
55362;SDS011;41244;49.242;9.060;2024-03-07T06:03:34;41.40;;;26.15;;
55362;SDS011;41244;49.242;9.060;2024-03-07T06:06:00;31.42;;;22.35;;
55362;SDS011;41244;49.242;9.060;2024-03-07T06:08:26;35.10;;;21.77;;
55362;SDS011;41244;49.242;9.060;2024-03-07T06:10:52;34.55;;;22.83;;
55362;SDS011;41244;49.242;9.060;2024-03-07T06:13:18;32.20;;;22.58;;
55362;SDS011;41244;49.242;9.060;2024-03-07T06:15:44;34.97;;;21.92;;
55362;SDS011;41244;49.242;9.060;2024-03-07T06:18:11;32.55;;;22.25;;
55362;SDS011;41244;49.242;9.060;2024-03-07T06:20:39;34.60;;;22.80;;
55362;SDS011;41244;49.242;9.060;2024-03-07T06:23:06;35.47;;;22.70;;
55362;SDS011;41244;49.242;9.060;2024-03-07T06:25:32;33.42;;;22.95;;
55362;SDS011;41244;49.242;9.060;2024-03-07T06:28:18;33.17;;;21.90;;
55362;SDS011;41244;49.242;9.060;2024-03-07T06:30:44;32.30;;;21.42;;
55362;SDS011;41244;49.242;9.060;2024-03-07T06:33:12;34.25;;;23.00;;
55362;SDS011;41244;49.242;9.060;2024-03-07T06:35:39;33.78;;;23.52;;
55362;SDS011;41244;49.242;9.060;2024-03-07T06:38:06;35.53;;;22.65;;
55362;SDS011;41244;49.242;9.060;2024-03-07T06:40:36;32.58;;;22.48;;
55362;SDS011;41244;49.242;9.060;2024-03-07T06:43:07;31.38;;;21.88;;
55362;SDS011;41244;49.242;9.060;2024-03-07T06:45:38;30.08;;;21.65;;
55362;SDS011;41244;49.242;9.060;2024-03-07T06:48:05;30.65;;;21.45;;
55362;SDS011;41244;49.242;9.060;2024-03-07T06:50:38;34.00;;;22.58;;
55362;SDS011;41244;49.242;9.060;2024-03-07T06:53:03;35.10;;;22.50;;
55362;SDS011;41244;49.242;9.060;2024-03-07T06:55:32;35.10;;;22.40;;
55362;SDS011;41244;49.242;9.060;2024-03-07T06:58:01;31.05;;;22.08;;
55362;SDS011;41244;49.242;9.060;2024-03-07T07:00:30;29.55;;;21.33;;
55362;SDS011;41244;49.242;9.060;2024-03-07T07:03:00;30.00;;;21.77;;
55362;SDS011;41244;49.242;9.060;2024-03-07T07:05:28;35.00;;;22.13;;
55362;SDS011;41244;49.242;9.060;2024-03-07T07:07:55;30.88;;;21.83;;
55362;SDS011;41244;49.242;9.060;2024-03-07T07:10:20;29.10;;;20.95;;
55362;SDS011;41244;49.242;9.060;2024-03-07T07:12:49;31.48;;;22.40;;
55362;SDS011;41244;49.242;9.060;2024-03-07T07:15:17;30.92;;;21.05;;
55362;SDS011;41244;49.242;9.060;2024-03-07T07:17:44;26.63;;;19.80;;
55362;SDS011;41244;49.242;9.060;2024-03-07T07:20:16;30.55;;;21.65;;
55362;SDS011;41244;49.242;9.060;2024-03-07T07:22:43;27.45;;;20.75;;
55362;SDS011;41244;49.242;9.060;2024-03-07T07:25:12;27.75;;;20.65;;
55362;SDS011;41244;49.242;9.060;2024-03-07T07:30:16;29.55;;;20.90;;
55362;SDS011;41244;49.242;9.060;2024-03-07T07:32:43;27.67;;;20.63;;
55362;SDS011;41244;49.242;9.060;2024-03-07T07:35:10;28.27;;;20.20;;
55362;SDS011;41244;49.242;9.060;2024-03-07T07:37:43;30.05;;;20.77;;
55362;SDS011;41244;49.242;9.060;2024-03-07T07:40:15;27.73;;;21.40;;
55362;SDS011;41244;49.242;9.060;2024-03-07T07:42:47;30.83;;;23.27;;
55362;SDS011;41244;49.242;9.060;2024-03-07T07:45:16;32.40;;;23.92;;
55362;SDS011;41244;49.242;9.060;2024-03-07T07:47:44;31.17;;;21.73;;
55362;SDS011;41244;49.242;9.060;2024-03-07T07:50:16;29.30;;;22.08;;
55362;SDS011;41244;49.242;9.060;2024-03-07T07:52:48;33.08;;;23.05;;
55362;SDS011;41244;49.242;9.060;2024-03-07T07:55:16;30.10;;;22.05;;
55362;SDS011;41244;49.242;9.060;2024-03-07T07:57:43;31.58;;;22.35;;
55362;SDS011;41244;49.242;9.060;2024-03-07T08:00:12;34.38;;;22.63;;
55362;SDS011;41244;49.242;9.060;2024-03-07T08:02:56;34.13;;;22.25;;
55362;SDS011;41244;49.242;9.060;2024-03-07T08:05:25;32.15;;;22.77;;
55362;SDS011;41244;49.242;9.060;2024-03-07T08:07:57;31.63;;;22.13;;
55362;SDS011;41244;49.242;9.060;2024-03-07T08:10:25;29.00;;;21.42;;
55362;SDS011;41244;49.242;9.060;2024-03-07T08:12:59;28.30;;;21.40;;
55362;SDS011;41244;49.242;9.060;2024-03-07T08:15:26;28.52;;;21.30;;
55362;SDS011;41244;49.242;9.060;2024-03-07T08:17:53;31.75;;;21.48;;
55362;SDS011;41244;49.242;9.060;2024-03-07T08:20:20;28.60;;;21.17;;
55362;SDS011;41244;49.242;9.060;2024-03-07T08:22:47;29.70;;;21.50;;
55362;SDS011;41244;49.242;9.060;2024-03-07T08:25:18;27.08;;;20.73;;
55362;SDS011;41244;49.242;9.060;2024-03-07T08:27:49;31.25;;;22.15;;
55362;SDS011;41244;49.242;9.060;2024-03-07T08:30:16;32.28;;;21.73;;
55362;SDS011;41244;49.242;9.060;2024-03-07T08:32:43;29.98;;;22.80;;
55362;SDS011;41244;49.242;9.060;2024-03-07T08:35:18;28.95;;;21.83;;
55362;SDS011;41244;49.242;9.060;2024-03-07T08:37:46;28.23;;;21.60;;
55362;SDS011;41244;49.242;9.060;2024-03-07T08:42:49;30.50;;;22.38;;
55362;SDS011;41244;49.242;9.060;2024-03-07T08:45:17;32.28;;;21.42;;
55362;SDS011;41244;49.242;9.060;2024-03-07T08:47:44;27.98;;;21.83;;
55362;SDS011;41244;49.242;9.060;2024-03-07T08:50:15;29.77;;;22.25;;
55362;SDS011;41244;49.242;9.060;2024-03-07T08:52:43;29.52;;;21.40;;
55362;SDS011;41244;49.242;9.060;2024-03-07T08:55:09;29.50;;;20.73;;
55362;SDS011;41244;49.242;9.060;2024-03-07T08:57:39;28.45;;;22.30;;
55362;SDS011;41244;49.242;9.060;2024-03-07T09:00:05;31.48;;;22.02;;
55362;SDS011;41244;49.242;9.060;2024-03-07T09:02:56;27.42;;;20.52;;
55362;SDS011;41244;49.242;9.060;2024-03-07T09:05:24;28.35;;;21.10;;
55362;SDS011;41244;49.242;9.060;2024-03-07T09:07:54;29.23;;;21.67;;
55362;SDS011;41244;49.242;9.060;2024-03-07T09:10:20;26.75;;;20.08;;
55362;SDS011;41244;49.242;9.060;2024-03-07T09:12:47;32.13;;;21.15;;
55362;SDS011;41244;49.242;9.060;2024-03-07T09:15:15;29.30;;;21.27;;
55362;SDS011;41244;49.242;9.060;2024-03-07T09:17:46;31.45;;;21.05;;
55362;SDS011;41244;49.242;9.060;2024-03-07T09:20:12;29.65;;;22.00;;
55362;SDS011;41244;49.242;9.060;2024-03-07T09:22:42;31.02;;;22.08;;
55362;SDS011;41244;49.242;9.060;2024-03-07T09:27:41;27.13;;;21.08;;
55362;SDS011;41244;49.242;9.060;2024-03-07T09:30:08;29.15;;;21.48;;
55362;SDS011;41244;49.242;9.060;2024-03-07T09:32:40;28.20;;;22.60;;
55362;SDS011;41244;49.242;9.060;2024-03-07T09:35:07;28.60;;;22.05;;
55362;SDS011;41244;49.242;9.060;2024-03-07T09:37:39;27.08;;;20.95;;
55362;SDS011;41244;49.242;9.060;2024-03-07T09:40:06;27.50;;;19.40;;
55362;SDS011;41244;49.242;9.060;2024-03-07T09:42:34;30.17;;;22.38;;
55362;SDS011;41244;49.242;9.060;2024-03-07T09:45:00;30.40;;;22.73;;
55362;SDS011;41244;49.242;9.060;2024-03-07T09:47:28;28.55;;;22.65;;
55362;SDS011;41244;49.242;9.060;2024-03-07T09:49:55;28.80;;;21.35;;
55362;SDS011;41244;49.242;9.060;2024-03-07T09:52:21;29.73;;;21.95;;
55362;SDS011;41244;49.242;9.060;2024-03-07T09:54:48;28.25;;;22.13;;
55362;SDS011;41244;49.242;9.060;2024-03-07T09:57:13;26.58;;;21.25;;
55362;SDS011;41244;49.242;9.060;2024-03-07T09:59:39;27.65;;;21.30;;
55362;SDS011;41244;49.242;9.060;2024-03-07T10:02:08;29.02;;;21.73;;
55362;SDS011;41244;49.242;9.060;2024-03-07T10:04:40;30.55;;;22.30;;
55362;SDS011;41244;49.242;9.060;2024-03-07T10:07:10;28.40;;;21.45;;
55362;SDS011;41244;49.242;9.060;2024-03-07T10:09:39;27.25;;;21.30;;
55362;SDS011;41244;49.242;9.060;2024-03-07T10:12:08;29.50;;;20.38;;
55362;SDS011;41244;49.242;9.060;2024-03-07T10:14:50;26.17;;;19.77;;
55362;SDS011;41244;49.242;9.060;2024-03-07T10:17:17;28.92;;;22.13;;
55362;SDS011;41244;49.242;9.060;2024-03-07T10:19:46;26.65;;;20.95;;
55362;SDS011;41244;49.242;9.060;2024-03-07T10:22:14;31.17;;;21.92;;
55362;SDS011;41244;49.242;9.060;2024-03-07T10:24:41;29.65;;;22.20;;
55362;SDS011;41244;49.242;9.060;2024-03-07T10:27:21;28.98;;;23.25;;
55362;SDS011;41244;49.242;9.060;2024-03-07T10:29:54;27.57;;;22.30;;
55362;SDS011;41244;49.242;9.060;2024-03-07T10:32:21;31.25;;;21.33;;
55362;SDS011;41244;49.242;9.060;2024-03-07T10:34:49;27.25;;;20.85;;
55362;SDS011;41244;49.242;9.060;2024-03-07T10:37:16;28.00;;;21.95;;
55362;SDS011;41244;49.242;9.060;2024-03-07T10:39:45;29.70;;;23.58;;
55362;SDS011;41244;49.242;9.060;2024-03-07T10:42:13;30.48;;;22.20;;
55362;SDS011;41244;49.242;9.060;2024-03-07T10:44:43;31.58;;;22.10;;
55362;SDS011;41244;49.242;9.060;2024-03-07T10:47:19;28.13;;;21.88;;
55362;SDS011;41244;49.242;9.060;2024-03-07T10:49:53;29.73;;;21.77;;
55362;SDS011;41244;49.242;9.060;2024-03-07T10:52:40;28.92;;;21.50;;
55362;SDS011;41244;49.242;9.060;2024-03-07T10:55:35;31.25;;;21.52;;
55362;SDS011;41244;49.242;9.060;2024-03-07T10:58:09;30.90;;;22.40;;
55362;SDS011;41244;49.242;9.060;2024-03-07T11:00:45;26.95;;;20.73;;
55362;SDS011;41244;49.242;9.060;2024-03-07T11:03:12;28.08;;;21.58;;
55362;SDS011;41244;49.242;9.060;2024-03-07T11:05:39;27.38;;;21.10;;
55362;SDS011;41244;49.242;9.060;2024-03-07T11:08:08;30.23;;;20.73;;
55362;SDS011;41244;49.242;9.060;2024-03-07T11:10:38;31.52;;;22.25;;
55362;SDS011;41244;49.242;9.060;2024-03-07T11:13:09;29.33;;;21.40;;
55362;SDS011;41244;49.242;9.060;2024-03-07T11:15:36;27.73;;;20.88;;
55362;SDS011;41244;49.242;9.060;2024-03-07T11:18:05;28.20;;;21.17;;
55362;SDS011;41244;49.242;9.060;2024-03-07T11:20:36;30.75;;;22.55;;
55362;SDS011;41244;49.242;9.060;2024-03-07T11:26:09;30.20;;;21.83;;
55362;SDS011;41244;49.242;9.060;2024-03-07T11:28:40;29.65;;;23.00;;
55362;SDS011;41244;49.242;9.060;2024-03-07T11:31:14;30.95;;;22.10;;
55362;SDS011;41244;49.242;9.060;2024-03-07T11:36:44;30.52;;;22.25;;
55362;SDS011;41244;49.242;9.060;2024-03-07T11:42:08;28.85;;;22.33;;
55362;SDS011;41244;49.242;9.060;2024-03-07T11:44:34;30.60;;;23.73;;
55362;SDS011;41244;49.242;9.060;2024-03-07T11:47:01;31.73;;;23.85;;
55362;SDS011;41244;49.242;9.060;2024-03-07T11:49:36;31.33;;;22.52;;
55362;SDS011;41244;49.242;9.060;2024-03-07T11:52:03;30.15;;;22.75;;
55362;SDS011;41244;49.242;9.060;2024-03-07T11:54:36;34.65;;;22.85;;
55362;SDS011;41244;49.242;9.060;2024-03-07T11:57:10;30.17;;;23.92;;
55362;SDS011;41244;49.242;9.060;2024-03-07T11:59:51;29.95;;;22.10;;
55362;SDS011;41244;49.242;9.060;2024-03-07T12:02:17;26.48;;;19.08;;
55362;SDS011;41244;49.242;9.060;2024-03-07T12:04:49;29.60;;;21.23;;
55362;SDS011;41244;49.242;9.060;2024-03-07T12:07:15;30.35;;;22.38;;
55362;SDS011;41244;49.242;9.060;2024-03-07T12:09:47;31.60;;;23.33;;
55362;SDS011;41244;49.242;9.060;2024-03-07T12:12:19;28.40;;;20.33;;
55362;SDS011;41244;49.242;9.060;2024-03-07T12:14:53;30.40;;;22.65;;
55362;SDS011;41244;49.242;9.060;2024-03-07T12:17:19;32.03;;;22.20;;
55362;SDS011;41244;49.242;9.060;2024-03-07T12:19:46;27.60;;;21.48;;
55362;SDS011;41244;49.242;9.060;2024-03-07T12:22:12;27.92;;;20.77;;
55362;SDS011;41244;49.242;9.060;2024-03-07T12:24:39;27.23;;;21.38;;
55362;SDS011;41244;49.242;9.060;2024-03-07T12:27:08;25.85;;;19.83;;
55362;SDS011;41244;49.242;9.060;2024-03-07T12:29:36;27.15;;;21.27;;
55362;SDS011;41244;49.242;9.060;2024-03-07T12:32:04;29.15;;;21.23;;
55362;SDS011;41244;49.242;9.060;2024-03-07T12:34:33;27.83;;;20.58;;
55362;SDS011;41244;49.242;9.060;2024-03-07T12:37:03;26.75;;;20.25;;
55362;SDS011;41244;49.242;9.060;2024-03-07T12:39:31;26.60;;;20.10;;
55362;SDS011;41244;49.242;9.060;2024-03-07T12:42:01;26.25;;;19.92;;
55362;SDS011;41244;49.242;9.060;2024-03-07T12:44:38;24.08;;;19.40;;
55362;SDS011;41244;49.242;9.060;2024-03-07T12:47:13;22.80;;;17.63;;
55362;SDS011;41244;49.242;9.060;2024-03-07T12:49:42;25.50;;;18.85;;
55362;SDS011;41244;49.242;9.060;2024-03-07T12:52:09;24.60;;;18.05;;
55362;SDS011;41244;49.242;9.060;2024-03-07T12:57:14;25.30;;;17.98;;
55362;SDS011;41244;49.242;9.060;2024-03-07T12:59:40;23.13;;;16.95;;
55362;SDS011;41244;49.242;9.060;2024-03-07T13:02:06;23.30;;;17.20;;
55362;SDS011;41244;49.242;9.060;2024-03-07T13:04:33;19.05;;;16.20;;
55362;SDS011;41244;49.242;9.060;2024-03-07T13:06:59;21.92;;;16.92;;
55362;SDS011;41244;49.242;9.060;2024-03-07T13:09:29;22.77;;;17.48;;
55362;SDS011;41244;49.242;9.060;2024-03-07T13:11:58;20.58;;;16.88;;
55362;SDS011;41244;49.242;9.060;2024-03-07T13:14:28;24.65;;;16.98;;
55362;SDS011;41244;49.242;9.060;2024-03-07T13:17:03;20.85;;;16.65;;
55362;SDS011;41244;49.242;9.060;2024-03-07T13:19:31;23.60;;;17.25;;
55362;SDS011;41244;49.242;9.060;2024-03-07T13:21:57;22.63;;;17.23;;
55362;SDS011;41244;49.242;9.060;2024-03-07T13:24:23;24.27;;;17.70;;
55362;SDS011;41244;49.242;9.060;2024-03-07T13:26:51;24.45;;;16.95;;
55362;SDS011;41244;49.242;9.060;2024-03-07T13:29:17;21.15;;;16.90;;
55362;SDS011;41244;49.242;9.060;2024-03-07T13:31:49;20.45;;;17.35;;
55362;SDS011;41244;49.242;9.060;2024-03-07T13:34:16;25.67;;;17.38;;
55362;SDS011;41244;49.242;9.060;2024-03-07T13:36:42;19.67;;;15.52;;
55362;SDS011;41244;49.242;9.060;2024-03-07T13:39:10;20.00;;;15.77;;
55362;SDS011;41244;49.242;9.060;2024-03-07T13:41:40;20.30;;;16.75;;
55362;SDS011;41244;49.242;9.060;2024-03-07T13:44:06;22.13;;;16.50;;
55362;SDS011;41244;49.242;9.060;2024-03-07T13:46:32;20.95;;;15.70;;
55362;SDS011;41244;49.242;9.060;2024-03-07T13:48:59;20.55;;;16.35;;
55362;SDS011;41244;49.242;9.060;2024-03-07T13:51:35;26.45;;;16.60;;
55362;SDS011;41244;49.242;9.060;2024-03-07T13:54:02;20.95;;;16.70;;
55362;SDS011;41244;49.242;9.060;2024-03-07T13:56:52;20.50;;;16.27;;
55362;SDS011;41244;49.242;9.060;2024-03-07T14:12:48;19.52;;;15.32;;
55362;SDS011;41244;49.242;9.060;2024-03-07T14:15:42;20.70;;;15.70;;
55362;SDS011;41244;49.242;9.060;2024-03-07T14:27:34;20.08;;;15.88;;
55362;SDS011;41244;49.242;9.060;2024-03-07T14:33:27;20.52;;;16.27;;
55362;SDS011;41244;49.242;9.060;2024-03-07T14:41:20;21.73;;;16.45;;
55362;SDS011;41244;49.242;9.060;2024-03-07T14:44:05;21.60;;;16.60;;
55362;SDS011;41244;49.242;9.060;2024-03-07T14:46:32;22.33;;;16.10;;
55362;SDS011;41244;49.242;9.060;2024-03-07T14:48:58;22.00;;;15.45;;
55362;SDS011;41244;49.242;9.060;2024-03-07T14:51:24;22.33;;;16.08;;
55362;SDS011;41244;49.242;9.060;2024-03-07T14:53:51;19.20;;;15.27;;
55362;SDS011;41244;49.242;9.060;2024-03-07T14:56:17;22.05;;;17.35;;
55362;SDS011;41244;49.242;9.060;2024-03-07T14:58:44;23.33;;;16.85;;
55362;SDS011;41244;49.242;9.060;2024-03-07T15:01:11;22.23;;;16.40;;
55362;SDS011;41244;49.242;9.060;2024-03-07T15:03:38;20.77;;;15.57;;
55362;SDS011;41244;49.242;9.060;2024-03-07T15:06:06;20.73;;;16.27;;
55362;SDS011;41244;49.242;9.060;2024-03-07T15:08:34;26.70;;;17.25;;
55362;SDS011;41244;49.242;9.060;2024-03-07T15:11:07;24.13;;;17.50;;
55362;SDS011;41244;49.242;9.060;2024-03-07T15:13:42;25.52;;;17.25;;
55362;SDS011;41244;49.242;9.060;2024-03-07T15:16:10;22.38;;;16.73;;
55362;SDS011;41244;49.242;9.060;2024-03-07T15:18:36;23.20;;;17.15;;